Time;durP1;ratioP1;P1;durP2;ratioP2;P2;SDS_P1;SDS_P2;PMS_P1;PMS_P2;Temp;Humidity;BMP_temperature;BMP_pressure;BME280_temperature;BME280_humidity;BME280_pressure;Samples;Min_cycle;Max_cycle;Signal;HPM_P1;HPM_P2
2021/07/15 00:00:36;;;;;;;18.20;16.30;;;24.10;77.80;;;;;;5094666;28;20218;-84
2021/07/15 00:03:09;;;;;;;18.52;16.55;;;24.10;77.80;;;;;;5094975;28;20164;-84
2021/07/15 00:05:37;;;;;;;19.00;17.00;;;24.10;77.90;;;;;;5094800;28;20728;-84
2021/07/15 00:08:03;;;;;;;18.60;16.70;;;24.10;77.90;;;;;;5095208;28;20165;-84
2021/07/15 00:10:35;;;;;;;18.00;16.15;;;24.10;77.90;;;;;;5077492;28;20165;-82
2021/07/15 00:13:03;;;;;;;18.85;16.85;;;24.10;77.80;;;;;;5078048;28;20168;-83
2021/07/15 00:15:29;;;;;;;17.98;16.15;;;24.10;77.70;;;;;;5094592;28;20165;-83
2021/07/15 00:17:55;;;;;;;18.45;16.55;;;24.10;77.80;;;;;;5094264;28;20165;-82
2021/07/15 00:20:21;;;;;;;19.45;17.35;;;24.10;77.90;;;;;;5094949;28;20515;-84
2021/07/15 00:22:47;;;;;;;19.92;17.83;;;24.10;77.80;;;;;;5111203;28;20164;-84
2021/07/15 00:25:16;;;;;;;20.02;17.77;;;24.10;77.80;;;;;;5094065;28;20184;-83
2021/07/15 00:27:43;;;;;;;19.13;17.08;;;24.10;78.00;;;;;;5043675;28;20647;-83
2021/07/15 00:30:14;;;;;;;19.80;17.70;;;24.20;78.80;;;;;;5059747;28;20191;-83
2021/07/15 00:32:41;;;;;;;18.85;16.85;;;24.10;78.00;;;;;;5043415;28;20184;-83
2021/07/15 00:35:11;;;;;;;18.77;16.88;;;24.10;78.00;;;;;;5059306;28;20173;-83
2021/07/15 00:37:38;;;;;;;18.55;16.55;;;24.10;78.00;;;;;;5060002;28;20211;-84
2021/07/15 00:40:06;;;;;;;18.58;16.67;;;24.10;78.00;;;;;;5076141;28;20320;-83
2021/07/15 00:42:33;;;;;;;20.77;18.17;;;24.10;77.80;;;;;;5059823;28;20176;-84
2021/07/15 00:45:00;;;;;;;18.88;16.88;;;24.00;77.90;;;;;;5059210;28;20204;-83
2021/07/15 00:47:29;;;;;;;19.40;17.35;;;24.10;78.00;;;;;;5075790;28;20674;-83
2021/07/15 00:49:55;;;;;;;19.88;17.77;;;24.00;78.00;;;;;;5059214;28;20211;-84
2021/07/15 00:52:21;;;;;;;19.65;17.58;;;24.10;78.10;;;;;;5093734;28;20532;-84
2021/07/15 00:54:46;;;;;;;18.75;16.75;;;24.10;78.10;;;;;;5094728;28;20161;-82
2021/07/15 00:57:12;;;;;;;19.38;17.38;;;24.10;78.00;;;;;;5093170;28;20800;-82
2021/07/15 00:59:38;;;;;;;19.20;17.20;;;24.00;77.90;;;;;;5110778;28;20497;-83
2021/07/15 01:02:04;;;;;;;19.23;17.23;;;24.00;78.00;;;;;;5110796;27;20612;-83
2021/07/15 01:04:30;;;;;;;19.35;17.35;;;24.10;78.10;;;;;;5093602;28;20260;-85
2021/07/15 01:06:55;;;;;;;19.45;17.45;;;24.00;78.00;;;;;;5093383;28;20157;-84
2021/07/15 01:09:21;;;;;;;19.55;17.55;;;24.00;78.00;;;;;;5076373;28;20160;-84
2021/07/15 01:12:06;;;;;;;19.58;17.58;;;24.00;78.10;;;;;;5093684;28;20511;-83
2021/07/15 01:14:35;;;;;;;19.20;17.10;;;24.00;78.10;;;;;;5047599;28;20184;-83
2021/07/15 01:17:07;;;;;;;20.42;18.33;;;24.00;78.20;;;;;;5093694;28;20206;-83
2021/07/15 01:20:06;;;;;;;20.48;18.27;;;24.00;78.10;;;;;;5093303;28;20531;-84
2021/07/15 01:22:38;;;;;;;19.77;17.63;;;24.00;78.10;;;;;;5077729;28;20181;-82
2021/07/15 01:25:36;;;;;;;18.52;16.52;;;24.00;78.10;;;;;;5059326;28;20204;-83
2021/07/15 01:28:16;;;;;;;19.63;17.63;;;24.00;78.10;;;;;;5094399;28;20254;-84
2021/07/15 01:30:44;;;;;;;20.10;18.00;;;24.00;78.10;;;;;;5094906;28;20581;-82
2021/07/15 01:33:27;;;;;;;19.83;17.77;;;24.00;78.20;;;;;;5110055;28;20149;-84
2021/07/15 01:35:59;;;;;;;19.48;17.48;;;23.90;78.10;;;;;;5109868;28;20604;-83
2021/07/15 01:38:32;;;;;;;19.30;17.25;;;24.00;78.30;;;;;;5076389;28;20164;-84
2021/07/15 01:41:03;;;;;;;19.23;17.23;;;24.00;78.20;;;;;;5092753;28;20149;-83
2021/07/15 01:43:58;;;;;;;20.35;18.08;;;24.00;78.30;;;;;;5110111;27;20148;-83
2021/07/15 01:46:25;;;;;;;20.10;17.83;;;24.00;78.40;;;;;;5044874;28;20223;-83
2021/07/15 01:48:51;;;;;;;20.10;17.95;;;24.00;78.30;;;;;;5058450;28;20271;-84
2021/07/15 01:51:18;;;;;;;19.60;17.58;;;24.00;78.30;;;;;;5109749;28;20228;-84
2021/07/15 01:53:44;;;;;;;19.67;17.58;;;23.90;78.30;;;;;;5092445;28;20504;-84
2021/07/15 01:56:12;;;;;;;20.45;18.27;;;24.00;78.30;;;;;;5075906;28;20171;-85
2021/07/15 01:58:39;;;;;;;19.85;17.75;;;24.00;78.40;;;;;;5075303;28;20224;-84
2021/07/15 02:01:06;;;;;;;19.83;17.73;;;24.00;78.30;;;;;;5092403;28;20200;-84
2021/07/15 02:03:33;;;;;;;20.17;18.08;;;24.00;78.30;;;;;;5075767;28;20165;-84
2021/07/15 02:05:59;;;;;;;19.75;17.65;;;23.90;78.30;;;;;;5093136;28;20200;-84
2021/07/15 02:08:25;;;;;;;20.20;18.00;;;24.00;78.50;;;;;;5092726;28;20164;-83
2021/07/15 02:10:54;;;;;;;19.90;17.67;;;23.90;78.50;;;;;;5092614;28;20197;-83
2021/07/15 02:13:20;;;;;;;19.80;17.70;;;23.90;78.50;;;;;;5092359;28;20612;-82
2021/07/15 02:15:51;;;;;;;19.95;17.75;;;23.90;78.50;;;;;;5109578;28;20181;-84
2021/07/15 02:18:18;;;;;;;19.85;17.75;;;23.90;78.50;;;;;;5093161;28;20169;-83
2021/07/15 02:20:45;;;;;;;20.55;18.38;;;23.90;78.40;;;;;;5092179;28;20162;-83
2021/07/15 02:23:12;;;;;;;20.27;18.08;;;23.90;78.60;;;;;;5091685;28;20145;-83
2021/07/15 02:25:41;;;;;;;21.10;18.75;;;23.90;78.50;;;;;;5109077;28;20630;-83
2021/07/15 02:28:15;;;;;;;20.13;18.02;;;23.90;78.70;;;;;;5041701;28;20245;-84
2021/07/15 02:30:46;;;;;;;20.73;18.15;;;23.90;78.70;;;;;;5041266;28;20251;-83
2021/07/15 02:33:13;;;;;;;19.75;17.65;;;23.80;78.60;;;;;;5058098;28;20184;-84
2021/07/15 02:35:43;;;;;;;21.08;18.77;;;23.90;78.60;;;;;;5017949;28;20185;-84
2021/07/15 02:38:11;;;;;;;20.00;17.88;;;23.90;78.70;;;;;;5002022;28;20178;-84
2021/07/15 02:40:37;;;;;;;20.58;18.38;;;23.90;78.80;;;;;;5017948;28;20227;-84
2021/07/15 02:43:03;;;;;;;19.67;17.60;;;23.90;78.70;;;;;;5017721;28;20161;-82
2021/07/15 02:45:29;;;;;;;19.90;17.65;;;23.90;78.70;;;;;;5017706;28;20205;-84
2021/07/15 02:47:56;;;;;;;20.70;18.50;;;23.90;78.70;;;;;;5017622;28;20265;-83
2021/07/15 02:50:27;;;;;;;20.42;18.23;;;23.90;78.70;;;;;;5001355;28;20186;-84
2021/07/15 02:52:57;;;;;;;20.95;18.73;;;23.90;78.70;;;;;;4984825;28;20596;-83
2021/07/15 02:55:23;;;;;;;20.60;18.40;;;23.90;78.70;;;;;;4985124;28;20626;-82
2021/07/15 02:58:22;;;;;;;21.10;18.85;;;23.90;78.70;;;;;;5018031;28;20239;-83
2021/07/15 03:00:51;;;;;;;19.50;17.40;;;23.90;78.70;;;;;;5034015;28;20208;-84
2021/07/15 03:03:22;;;;;;;21.20;18.73;;;23.80;78.80;;;;;;5018105;28;20193;-83
2021/07/15 03:06:03;;;;;;;20.42;18.23;;;23.80;78.70;;;;;;5041116;28;20238;-82
2021/07/15 03:08:33;;;;;;;20.55;18.15;;;23.90;78.80;;;;;;5096371;28;20243;-83
2021/07/15 03:10:59;;;;;;;20.85;18.60;;;23.80;78.80;;;;;;5095563;28;20614;-83
2021/07/15 03:13:28;;;;;;;21.75;19.10;;;23.90;78.80;;;;;;5112575;28;20201;-84
2021/07/15 03:15:53;;;;;;;20.90;18.70;;;23.90;78.90;;;;;;5112593;28;20161;-84
2021/07/15 03:18:22;;;;;;;21.05;18.48;;;23.80;78.80;;;;;;5078319;28;20522;-82
2021/07/15 03:20:48;;;;;;;20.63;18.02;;;23.80;78.90;;;;;;5112697;28;20149;-84
2021/07/15 03:23:18;;;;;;;19.73;17.63;;;23.80;78.80;;;;;;5112481;27;20608;-82
2021/07/15 03:25:50;;;;;;;20.13;17.92;;;23.80;78.90;;;;;;5095913;28;20199;-83
2021/07/15 03:28:21;;;;;;;21.85;18.92;;;23.80;78.90;;;;;;5061479;28;20651;-84
2021/07/15 03:30:49;;;;;;;21.25;18.95;;;23.80;78.90;;;;;;5061234;28;20643;-82
2021/07/15 03:33:20;;;;;;;19.63;17.50;;;23.80;78.90;;;;;;5061290;28;20191;-84
2021/07/15 03:35:46;;;;;;;20.55;18.35;;;23.80;78.90;;;;;;5077703;28;20182;-82
2021/07/15 03:38:13;;;;;;;20.65;18.45;;;23.80;79.00;;;;;;5096240;28;20526;-84
2021/07/15 03:40:39;;;;;;;20.42;18.25;;;23.80;79.00;;;;;;5098959;28;20161;-83
2021/07/15 03:43:07;;;;;;;22.98;19.48;;;23.80;79.00;;;;;;5098024;28;20161;-81
2021/07/15 03:45:34;;;;;;;21.95;18.83;;;23.80;79.00;;;;;;5099191;28;20258;-83
2021/07/15 03:48:00;;;;;;;21.30;18.88;;;23.80;78.90;;;;;;5099151;28;20165;-83
2021/07/15 03:50:27;;;;;;;20.05;17.95;;;23.80;78.90;;;;;;5114800;27;20153;-81
2021/07/15 03:52:55;;;;;;;20.63;18.17;;;23.80;79.00;;;;;;5081083;28;20223;-84
2021/07/15 03:55:23;;;;;;;21.73;19.42;;;23.80;79.00;;;;;;5096424;28;20157;-82
2021/07/15 03:57:52;;;;;;;21.25;18.95;;;23.80;79.00;;;;;;5112091;27;20216;-83
2021/07/15 04:00:23;;;;;;;20.90;18.70;;;23.80;78.90;;;;;;5077603;28;20294;-84
2021/07/15 04:02:53;;;;;;;20.23;18.02;;;23.80;79.00;;;;;;5061104;28;20176;-83
2021/07/15 04:05:23;;;;;;;21.08;18.88;;;23.80;79.10;;;;;;5078195;28;20285;-83
2021/07/15 04:07:52;;;;;;;20.02;17.92;;;23.80;79.10;;;;;;5060913;28;20181;-82
2021/07/15 04:10:20;;;;;;;20.95;18.58;;;23.80;79.00;;;;;;5060595;28;20539;-84
2021/07/15 04:12:49;;;;;;;21.05;18.77;;;23.80;79.00;;;;;;5094072;28;20234;-82
2021/07/15 04:15:21;;;;;;;20.92;18.50;;;23.90;79.10;;;;;;5044195;28;20185;-82
2021/07/15 04:17:54;;;;;;;20.10;17.55;;;23.80;79.20;;;;;;5044195;28;20588;-84
2021/07/15 04:20:25;;;;;;;19.23;17.17;;;23.90;79.50;;;;;;5044547;28;20180;-84
2021/07/15 04:22:54;;;;;;;20.33;18.15;;;24.00;79.60;;;;;;5060935;28;20176;-83
2021/07/15 04:25:23;;;;;;;19.60;17.50;;;24.00;78.60;;;;;;5060156;28;20216;-82
2021/07/15 04:27:53;;;;;;;21.05;17.90;;;24.10;78.20;;;;;;5060218;28;20184;-82
2021/07/15 04:30:21;;;;;;;20.63;18.40;;;24.20;78.10;;;;;;5043441;28;20651;-84
2021/07/15 04:32:52;;;;;;;20.73;18.25;;;24.20;77.80;;;;;;5043113;28;20172;-84
2021/07/15 04:35:19;;;;;;;20.50;18.40;;;24.20;78.00;;;;;;5060447;28;20180;-84
2021/07/15 04:37:47;;;;;;;20.30;18.10;;;24.20;77.70;;;;;;5076400;28;20184;-82
2021/07/15 04:40:16;;;;;;;19.70;17.40;;;24.20;77.70;;;;;;5059516;28;20583;-83
2021/07/15 04:42:42;;;;;;;20.05;17.85;;;24.20;77.60;;;;;;5094110;28;20165;-84
2021/07/15 04:45:09;;;;;;;19.92;17.73;;;24.20;77.50;;;;;;5111033;28;20195;-82
2021/07/15 04:47:35;;;;;;;19.70;17.60;;;24.20;77.60;;;;;;5094948;28;20167;-84
2021/07/15 04:50:00;;;;;;;20.73;17.98;;;24.20;77.70;;;;;;5076837;28;20157;-83
2021/07/15 04:52:26;;;;;;;19.25;17.15;;;24.30;77.50;;;;;;5093508;28;20230;-83
2021/07/15 04:54:52;;;;;;;21.08;18.80;;;24.40;77.00;;;;;;5110564;28;20558;-84
2021/07/15 04:57:19;;;;;;;20.48;18.27;;;24.30;76.90;;;;;;5076418;28;20216;-84
2021/07/15 04:59:46;;;;;;;20.02;17.92;;;24.20;77.20;;;;;;5075834;28;20222;-84
2021/07/15 05:02:13;;;;;;;19.75;17.30;;;24.20;77.60;;;;;;5076012;28;20203;-81
2021/07/15 05:04:40;;;;;;;18.92;16.92;;;24.20;77.60;;;;;;5075784;28;20219;-85
2021/07/15 05:07:07;;;;;;;20.38;18.17;;;24.20;77.60;;;;;;5059165;28;20271;-84
2021/07/15 05:09:34;;;;;;;20.38;18.15;;;24.20;77.30;;;;;;5075533;28;20183;-82
2021/07/15 05:12:01;;;;;;;19.88;17.77;;;24.10;77.70;;;;;;5093167;28;20196;-84
2021/07/15 05:14:27;;;;;;;19.58;17.50;;;24.20;77.40;;;;;;5093595;28;20153;-83
2021/07/15 05:16:53;;;;;;;19.88;17.75;;;24.30;77.50;;;;;;5093148;28;20171;-84
2021/07/15 05:19:19;;;;;;;19.63;17.58;;;24.30;77.50;;;;;;5092927;28;20164;-84
2021/07/15 05:21:45;;;;;;;19.52;17.42;;;24.30;77.20;;;;;;5094405;28;20156;-84
2021/07/15 05:24:11;;;;;;;18.73;16.73;;;24.30;77.30;;;;;;5076707;28;20160;-84
2021/07/15 05:26:37;;;;;;;20.20;18.00;;;24.40;77.40;;;;;;5076723;28;20222;-82
2021/07/15 05:29:03;;;;;;;19.38;17.10;;;24.40;77.00;;;;;;5094319;28;20175;-84
2021/07/15 05:31:29;;;;;;;19.80;17.70;;;24.40;76.70;;;;;;5076222;28;20165;-84
2021/07/15 05:33:55;;;;;;;20.10;18.00;;;24.40;76.70;;;;;;5093004;28;20160;-84
2021/07/15 05:36:21;;;;;;;20.42;18.23;;;24.30;77.00;;;;;;5093468;28;20157;-82
2021/07/15 05:38:46;;;;;;;20.70;18.50;;;24.30;77.30;;;;;;5092982;28;20603;-82
2021/07/15 05:41:13;;;;;;;20.58;18.20;;;24.30;77.20;;;;;;5092904;28;20201;-84
2021/07/15 05:43:39;;;;;;;21.42;17.52;;;24.20;77.60;;;;;;5075807;28;20161;-84
2021/07/15 05:46:05;;;;;;;21.13;18.77;;;24.30;77.70;;;;;;5092633;28;20280;-83
2021/07/15 05:48:31;;;;;;;20.70;18.48;;;24.30;77.60;;;;;;5092694;28;20160;-81
2021/07/15 05:50:57;;;;;;;22.20;19.25;;;24.30;77.10;;;;;;5093758;28;20161;-83
2021/07/15 05:53:23;;;;;;;20.23;18.08;;;24.20;77.30;;;;;;5093778;28;20635;-81
2021/07/15 05:55:49;;;;;;;21.05;18.38;;;24.20;77.30;;;;;;5075582;28;20194;-84
2021/07/15 05:58:15;;;;;;;20.85;18.25;;;24.20;77.70;;;;;;5075359;28;20234;-84
2021/07/15 06:00:43;;;;;;;20.23;18.05;;;24.30;78.00;;;;;;5076208;28;20690;-83
2021/07/15 06:03:10;;;;;;;20.77;18.38;;;24.20;77.80;;;;;;5057959;28;20276;-81
2021/07/15 06:05:37;;;;;;;20.85;18.58;;;24.30;78.50;;;;;;5058177;28;20209;-81
2021/07/15 06:08:04;;;;;;;19.75;17.63;;;24.30;77.30;;;;;;5074318;28;20584;-83
2021/07/15 06:10:31;;;;;;;20.90;17.90;;;24.30;77.70;;;;;;5091539;28;20635;-82
2021/07/15 06:12:59;;;;;;;19.52;17.42;;;24.30;77.60;;;;;;5058026;28;20183;-82
2021/07/15 06:15:26;;;;;;;19.83;17.70;;;24.30;77.40;;;;;;5074936;28;20192;-82
2021/07/15 06:17:55;;;;;;;19.85;17.75;;;24.40;77.20;;;;;;5074703;28;20633;-83
2021/07/15 06:20:28;;;;;;;21.55;17.33;;;24.40;77.40;;;;;;5058121;28;20180;-81
2021/07/15 06:22:55;;;;;;;20.58;18.17;;;24.40;77.20;;;;;;5075081;28;20260;-81
2021/07/15 06:25:25;;;;;;;21.02;18.08;;;24.40;77.00;;;;;;5075428;28;20235;-83
2021/07/15 06:27:56;;;;;;;21.00;18.70;;;24.50;76.90;;;;;;5075038;28;20192;-84
2021/07/15 06:30:22;;;;;;;20.35;18.17;;;24.50;76.70;;;;;;5057973;28;20176;-81
2021/07/15 06:32:48;;;;;;;21.08;18.58;;;24.40;76.90;;;;;;5092147;28;20145;-82
2021/07/15 06:35:16;;;;;;;20.30;18.08;;;24.50;76.40;;;;;;5093702;28;20188;-83
2021/07/15 06:37:42;;;;;;;20.40;18.23;;;24.50;76.50;;;;;;5075247;28;20157;-82
2021/07/15 06:40:12;;;;;;;19.23;17.15;;;24.50;76.70;;;;;;5093293;28;20240;-82
2021/07/15 06:42:39;;;;;;;21.15;18.33;;;24.50;76.60;;;;;;5059974;28;20192;-82
2021/07/15 06:45:07;;;;;;;22.83;18.73;;;24.40;76.90;;;;;;5095328;28;20218;-83
2021/07/15 06:47:35;;;;;;;20.65;18.05;;;24.50;77.60;;;;;;5079252;28;20219;-81
2021/07/15 06:50:03;;;;;;;20.80;18.15;;;24.50;76.40;;;;;;5045117;28;20188;-83
2021/07/15 06:52:32;;;;;;;21.45;18.83;;;24.50;76.60;;;;;;5045297;28;20192;-81
2021/07/15 06:54:58;;;;;;;20.20;18.05;;;24.50;76.50;;;;;;5061972;28;20222;-82
2021/07/15 06:57:24;;;;;;;22.83;19.15;;;24.60;76.50;;;;;;5112707;28;20266;-83
2021/07/15 06:59:50;;;;;;;21.35;18.20;;;24.60;76.20;;;;;;5096086;28;20208;-81
2021/07/15 07:02:17;;;;;;;20.65;18.27;;;24.60;76.30;;;;;;5096088;28;20172;-84
2021/07/15 07:04:44;;;;;;;20.45;18.00;;;24.50;76.40;;;;;;5078021;28;20714;-81
2021/07/15 07:07:10;;;;;;;23.23;19.08;;;24.60;76.20;;;;;;5077800;28;20191;-84
2021/07/15 07:09:36;;;;;;;20.73;18.52;;;24.60;76.30;;;;;;5096362;28;20161;-81
2021/07/15 07:12:07;;;;;;;18.88;16.85;;;24.60;76.40;;;;;;5095514;28;20156;-84
2021/07/15 07:14:36;;;;;;;21.02;17.83;;;24.60;76.20;;;;;;5061742;28;20230;-81
2021/07/15 07:17:05;;;;;;;21.80;19.40;;;24.60;76.30;;;;;;5077590;28;20176;-82
2021/07/15 07:19:33;;;;;;;22.48;19.65;;;24.60;75.80;;;;;;5077876;28;20176;-81
2021/07/15 07:22:02;;;;;;;22.75;19.02;;;24.60;76.40;;;;;;5077917;28;20267;-81
2021/07/15 07:24:31;;;;;;;22.27;18.70;;;24.60;76.20;;;;;;5061104;28;20267;-84
2021/07/15 07:27:00;;;;;;;22.20;18.75;;;24.60;76.10;;;;;;5060860;28;20188;-82
2021/07/15 07:29:29;;;;;;;22.48;18.83;;;24.60;76.10;;;;;;5061192;28;20176;-84
2021/07/15 07:31:57;;;;;;;21.15;18.70;;;24.70;76.20;;;;;;5060645;28;20191;-81
2021/07/15 07:34:23;;;;;;;22.15;19.25;;;24.60;76.00;;;;;;5077403;28;20279;-82
2021/07/15 07:36:54;;;;;;;20.08;17.98;;;24.70;76.00;;;;;;5077296;28;20177;-82
2021/07/15 07:39:23;;;;;;;21.95;18.70;;;24.80;75.60;;;;;;5077378;28;20208;-83
2021/07/15 07:41:50;;;;;;;21.02;18.77;;;24.80;75.70;;;;;;5077460;28;20180;-82
2021/07/15 07:44:18;;;;;;;22.02;19.58;;;24.70;75.60;;;;;;5094990;28;20195;-82
2021/07/15 07:46:47;;;;;;;22.77;19.00;;;24.60;75.90;;;;;;5077103;28;20560;-84
2021/07/15 07:49:16;;;;;;;23.08;18.92;;;24.70;75.60;;;;;;5077673;28;20181;-83
2021/07/15 07:51:45;;;;;;;20.73;18.55;;;24.70;76.00;;;;;;5060304;28;20172;-83
2021/07/15 07:54:13;;;;;;;21.33;18.98;;;24.80;75.40;;;;;;5075900;28;20200;-83
2021/07/15 07:56:43;;;;;;;20.88;18.05;;;24.70;75.60;;;;;;5043643;28;20184;-82
2021/07/15 07:59:12;;;;;;;21.75;19.15;;;24.80;75.70;;;;;;5043706;28;20220;-82
2021/07/15 08:01:40;;;;;;;22.75;20.25;;;24.80;75.40;;;;;;5077111;28;20184;-84
2021/07/15 08:04:09;;;;;;;22.63;20.02;;;24.70;75.40;;;;;;5078664;28;20569;-82
2021/07/15 08:06:37;;;;;;;21.13;18.83;;;24.70;75.70;;;;;;5060090;28;20220;-83
2021/07/15 08:09:09;;;;;;;24.95;19.70;;;24.50;76.10;;;;;;5076943;28;20667;-82
2021/07/15 08:11:39;;;;;;;22.65;18.20;;;24.60;76.30;;;;;;5060470;28;20202;-82
2021/07/15 08:14:07;;;;;;;21.17;18.52;;;24.60;76.20;;;;;;5060334;28;20266;-81
2021/07/15 08:16:35;;;;;;;23.02;19.83;;;24.70;75.60;;;;;;5076979;28;20184;-85
2021/07/15 08:19:05;;;;;;;21.77;19.40;;;24.80;75.20;;;;;;5060093;28;20177;-82
2021/07/15 08:21:34;;;;;;;21.20;18.77;;;24.80;75.40;;;;;;5093594;28;20185;-82
2021/07/15 08:23:59;;;;;;;22.83;19.67;;;24.70;75.50;;;;;;5060208;28;20208;-83
2021/07/15 08:26:27;;;;;;;24.02;20.40;;;24.70;75.30;;;;;;5111236;28;20219;-83
2021/07/15 08:28:54;;;;;;;23.17;19.58;;;24.80;75.30;;;;;;5076575;28;20245;-84
2021/07/15 08:31:23;;;;;;;23.58;20.52;;;24.80;75.20;;;;;;5076686;28;20218;-81
2021/07/15 08:33:50;;;;;;;22.13;19.30;;;24.80;74.80;;;;;;5076525;28;20188;-84
2021/07/15 08:36:19;;;;;;;22.23;19.83;;;24.80;74.80;;;;;;5076082;28;20216;-84
2021/07/15 08:38:46;;;;;;;23.52;20.30;;;24.80;75.00;;;;;;5076460;28;20528;-83
2021/07/15 08:41:13;;;;;;;22.52;19.85;;;24.80;75.10;;;;;;5076441;28;20268;-85
2021/07/15 08:43:41;;;;;;;20.85;18.55;;;24.80;74.80;;;;;;5059173;28;20554;-83
2021/07/15 08:46:07;;;;;;;22.98;19.63;;;24.90;74.70;;;;;;5059752;28;20243;-84
2021/07/15 08:48:35;;;;;;;23.60;20.10;;;24.80;74.70;;;;;;5075752;28;20264;-83
2021/07/15 08:51:03;;;;;;;23.13;19.75;;;24.80;74.90;;;;;;5059580;28;20201;-82
2021/07/15 08:53:32;;;;;;;21.75;19.23;;;24.70;74.90;;;;;;5092977;28;20191;-84
2021/07/15 08:58:38;;;;;;;22.98;20.27;;;24.80;74.80;;;;;;5062897;28;20232;-81
2021/07/15 09:01:05;;;;;;;22.17;19.73;;;24.80;74.50;;;;;;5076992;28;20202;-82
2021/07/15 09:03:34;;;;;;;22.13;19.63;;;24.80;74.60;;;;;;5092801;28;20212;-84
2021/07/15 09:06:02;;;;;;;23.80;20.58;;;24.80;74.50;;;;;;5058688;28;20212;-81
2021/07/15 09:08:31;;;;;;;24.70;21.25;;;24.80;74.70;;;;;;5059714;28;20229;-84
2021/07/15 09:11:00;;;;;;;23.40;20.65;;;24.80;74.80;;;;;;5059279;28;20647;-83
2021/07/15 09:13:27;;;;;;;24.30;21.38;;;24.70;74.70;;;;;;5059651;28;20181;-82
2021/07/15 09:15:54;;;;;;;22.90;20.10;;;24.80;74.70;;;;;;5076581;28;20188;-81
2021/07/15 09:18:21;;;;;;;23.23;19.55;;;24.80;74.80;;;;;;5076332;28;20730;-84
2021/07/15 09:20:48;;;;;;;22.27;19.27;;;24.80;74.50;;;;;;5059248;28;20187;-83
2021/07/15 09:23:16;;;;;;;24.15;20.33;;;24.80;74.40;;;;;;5075709;28;20177;-83
2021/07/15 09:25:57;;;;;;;22.30;19.90;;;24.90;74.40;;;;;;5059229;28;20307;-82
2021/07/15 09:28:27;;;;;;;23.00;20.48;;;24.90;73.80;;;;;;5093759;28;20179;-82
2021/07/15 09:30:53;;;;;;;23.48;20.05;;;25.00;73.80;;;;;;5042160;28;20585;-84
2021/07/15 09:33:20;;;;;;;23.30;20.52;;;24.90;73.60;;;;;;5075322;28;20228;-82
2021/07/15 09:35:48;;;;;;;24.52;21.42;;;24.90;73.80;;;;;;5058956;28;20187;-82
2021/07/15 09:38:16;;;;;;;23.08;20.58;;;24.90;73.80;;;;;;5058750;28;20176;-82
2021/07/15 09:40:48;;;;;;;24.30;21.38;;;24.90;73.60;;;;;;5075973;28;20202;-82
2021/07/15 09:43:26;;;;;;;26.38;21.88;;;25.00;73.60;;;;;;5092602;28;20240;-82
2021/07/15 09:45:54;;;;;;;26.42;21.73;;;25.00;73.50;;;;;;5075638;28;20180;-82
2021/07/15 09:48:28;;;;;;;23.17;20.55;;;24.90;73.30;;;;;;5093968;28;20161;-82
2021/07/15 09:50:58;;;;;;;26.77;22.30;;;25.00;73.30;;;;;;5110125;28;20615;-83
2021/07/15 09:53:25;;;;;;;24.88;21.77;;;25.00;73.20;;;;;;5058447;28;20177;-82
2021/07/15 09:56:06;;;;;;;21.92;19.58;;;25.00;73.20;;;;;;5075537;28;20195;-82
2021/07/15 09:58:39;;;;;;;24.40;21.38;;;25.00;73.40;;;;;;5075267;28;20598;-82
2021/07/15 10:01:08;;;;;;;24.40;21.45;;;25.00;73.20;;;;;;5110015;28;20187;-84
2021/07/15 10:03:38;;;;;;;25.15;22.10;;;25.00;73.10;;;;;;5058312;28;20230;-83
2021/07/15 10:06:05;;;;;;;25.58;21.75;;;25.10;72.90;;;;;;5058763;28;20585;-82
2021/07/15 10:08:33;;;;;;;26.08;22.80;;;25.10;73.00;;;;;;5074788;28;20206;-81
2021/07/15 10:11:16;;;;;;;24.35;21.70;;;24.90;73.30;;;;;;5058245;28;20544;-84
2021/07/15 10:13:44;;;;;;;23.63;20.88;;;25.00;73.30;;;;;;5075372;28;20252;-82
2021/07/15 10:16:14;;;;;;;24.13;21.35;;;25.00;73.00;;;;;;5075429;28;20218;-83
2021/07/15 10:18:45;;;;;;;24.95;21.02;;;25.00;73.00;;;;;;5075233;28;20640;-82
2021/07/15 10:21:13;;;;;;;24.48;21.23;;;25.10;72.80;;;;;;5075801;28;20165;-83
2021/07/15 10:23:41;;;;;;;25.48;21.27;;;25.10;72.70;;;;;;5075501;28;20172;-84
2021/07/15 10:26:08;;;;;;;24.95;21.42;;;25.20;72.40;;;;;;5092077;28;20188;-81
2021/07/15 10:28:35;;;;;;;25.95;22.33;;;25.10;72.50;;;;;;5092471;28;20156;-82
2021/07/15 10:31:03;;;;;;;23.70;21.08;;;25.10;72.20;;;;;;5092519;28;20144;-83
2021/07/15 10:33:29;;;;;;;26.27;23.20;;;25.20;72.10;;;;;;5091986;28;20579;-84
2021/07/15 10:35:57;;;;;;;25.27;22.13;;;25.10;72.20;;;;;;5092140;28;20165;-82
2021/07/15 10:38:28;;;;;;;24.75;21.33;;;25.10;72.10;;;;;;5075337;28;20172;-84
2021/07/15 10:40:54;;;;;;;24.73;21.08;;;25.20;71.90;;;;;;5092071;28;20535;-81
2021/07/15 10:43:20;;;;;;;25.88;22.25;;;25.20;71.70;;;;;;5092284;28;20209;-83
2021/07/15 10:45:47;;;;;;;25.35;22.52;;;25.20;71.90;;;;;;5092910;28;20189;-82
2021/07/15 10:48:14;;;;;;;25.17;22.48;;;25.20;72.50;;;;;;5091894;28;20180;-84
2021/07/15 10:50:40;;;;;;;25.90;21.48;;;25.20;71.60;;;;;;5075376;28;20157;-82
2021/07/15 10:53:07;;;;;;;25.13;21.90;;;25.20;71.30;;;;;;5074860;28;20211;-82
2021/07/15 10:55:33;;;;;;;24.13;21.17;;;25.20;71.40;;;;;;5091900;28;20240;-84
2021/07/15 10:57:59;;;;;;;25.90;22.45;;;25.20;71.30;;;;;;5092804;28;20243;-82
2021/07/15 11:00:27;;;;;;;25.17;21.40;;;25.30;71.20;;;;;;5093014;28;20207;-82
2021/07/15 11:03:14;;;;;;;28.17;22.33;;;25.30;71.00;;;;;;5093235;28;20150;-82
2021/07/15 11:05:49;;;;;;;24.65;21.40;;;25.30;71.00;;;;;;5092021;28;20712;-83
2021/07/15 11:08:15;;;;;;;23.75;21.00;;;25.40;70.80;;;;;;5092067;28;20206;-83
2021/07/15 11:10:42;;;;;;;25.20;21.70;;;25.30;70.80;;;;;;5074856;28;20512;-82
2021/07/15 11:13:11;;;;;;;26.50;21.77;;;25.40;70.70;;;;;;5091726;28;20149;-84
2021/07/15 11:15:52;;;;;;;24.15;20.77;;;25.40;71.50;;;;;;5041025;28;20192;-82
2021/07/15 11:18:48;;;;;;;24.55;21.85;;;25.40;70.50;;;;;;5075104;28;20247;-82
2021/07/15 11:21:30;;;;;;;25.88;22.52;;;25.30;70.70;;;;;;5075378;28;20161;-83
2021/07/15 11:24:16;;;;;;;27.27;23.08;;;25.30;70.70;;;;;;5075148;28;20538;-84
2021/07/15 11:26:42;;;;;;;25.58;22.75;;;25.20;71.10;;;;;;5093047;28;20188;-84
2021/07/15 11:29:09;;;;;;;23.83;21.02;;;25.10;71.30;;;;;;5094325;28;20559;-82
2021/07/15 11:31:48;;;;;;;26.73;22.80;;;25.20;71.10;;;;;;5095147;28;20258;-83
2021/07/15 11:34:44;;;;;;;26.45;22.85;;;25.20;70.90;;;;;;5095337;28;20227;-84
2021/07/15 11:37:37;;;;;;;27.60;23.95;;;25.30;70.70;;;;;;5078408;28;20157;-83
2021/07/15 11:40:18;;;;;;;28.42;23.92;;;25.30;70.70;;;;;;5095179;28;20177;-83
2021/07/15 11:42:45;;;;;;;26.67;22.52;;;25.30;70.60;;;;;;5096550;28;20559;-85
2021/07/15 11:45:11;;;;;;;25.40;22.63;;;25.30;70.50;;;;;;5078089;28;20192;-82
2021/07/15 11:47:50;;;;;;;25.38;22.08;;;25.30;70.50;;;;;;5095215;28;20202;-84
2021/07/15 11:50:31;;;;;;;29.50;23.60;;;25.40;70.30;;;;;;5094844;28;20161;-84
2021/07/15 11:53:24;;;;;;;28.40;24.25;;;25.40;70.20;;;;;;5077998;28;20542;-82
2021/07/15 11:55:51;;;;;;;27.63;23.67;;;25.40;70.10;;;;;;5077802;28;20171;-83
2021/07/15 11:58:46;;;;;;;24.58;21.73;;;25.50;70.10;;;;;;5094658;28;20293;-83
2021/07/15 12:01:16;;;;;;;26.45;22.77;;;25.40;70.20;;;;;;5095055;28;20157;-83
2021/07/15 12:03:59;;;;;;;25.60;22.83;;;25.40;70.10;;;;;;5095872;28;20157;-82
2021/07/15 12:06:25;;;;;;;27.45;23.13;;;25.40;70.10;;;;;;5077500;28;20184;-84
2021/07/15 12:08:51;;;;;;;28.52;24.05;;;25.40;70.10;;;;;;5095777;28;20149;-83
2021/07/15 12:11:24;;;;;;;26.77;22.65;;;25.40;70.20;;;;;;5095740;28;20159;-83
2021/07/15 12:13:51;;;;;;;27.70;23.40;;;25.40;70.20;;;;;;5060213;28;20279;-85
2021/07/15 12:16:21;;;;;;;28.90;24.67;;;25.40;70.10;;;;;;5095778;28;20157;-82
2021/07/15 12:18:50;;;;;;;27.10;23.38;;;25.40;70.10;;;;;;5094390;28;20156;-83
2021/07/15 12:21:18;;;;;;;26.40;23.30;;;25.40;70.10;;;;;;5077516;28;20161;-83
2021/07/15 12:23:46;;;;;;;26.67;23.63;;;25.40;70.00;;;;;;5094223;28;20147;-83
2021/07/15 12:26:16;;;;;;;30.45;24.88;;;25.40;70.00;;;;;;5078022;28;20269;-83
2021/07/15 12:28:45;;;;;;;28.27;23.95;;;25.30;69.90;;;;;;5077363;28;20199;-81
2021/07/15 12:31:12;;;;;;;28.08;23.58;;;25.40;70.10;;;;;;5078255;28;20260;-81
2021/07/15 12:33:43;;;;;;;27.02;23.70;;;25.30;70.00;;;;;;5077671;28;20164;-82
2021/07/15 12:36:15;;;;;;;28.08;23.38;;;25.30;70.00;;;;;;5077113;28;20294;-83
2021/07/15 12:38:42;;;;;;;28.30;24.25;;;25.40;69.80;;;;;;5094060;28;20149;-82
2021/07/15 12:41:14;;;;;;;29.65;23.63;;;25.40;69.80;;;;;;5093373;28;20153;-83